Time;durP1;ratioP1;P1;durP2;ratioP2;P2;SDS_P1;SDS_P2;PMS_P1;PMS_P2;Temp;Humidity;BMP_temperature;BMP_pressure;BME280_temperature;BME280_humidity;BME280_pressure;Samples;Min_cycle;Max_cycle;Signal;HPM_P1;HPM_P2
2024/02/19 00:01:29;;;;;;;12.20;7.07;;;10.40;99.90;;;;;;4993110;28;20355;-69
2024/02/19 00:03:55;;;;;;;9.15;6.03;;;10.40;99.90;;;;;;5013021;28;20087;-68
2024/02/19 00:06:22;;;;;;;10.35;5.68;;;10.40;99.90;;;;;;5027558;28;20041;-71
2024/02/19 00:08:50;;;;;;;8.13;5.85;;;10.30;99.90;;;;;;5012283;28;20042;-69
2024/02/19 00:11:16;;;;;;;9.82;5.90;;;10.30;99.90;;;;;;4987866;28;20113;-70
2024/02/19 00:13:43;;;;;;;9.52;5.63;;;10.30;99.90;;;;;;4995921;28;20113;-71
2024/02/19 00:16:10;;;;;;;8.10;5.50;;;10.30;99.90;;;;;;5029551;28;20048;-71
2024/02/19 00:18:35;;;;;;;7.68;5.53;;;10.20;99.90;;;;;;5018330;28;20026;-69
2024/02/19 00:21:02;;;;;;;8.60;5.47;;;10.30;99.90;;;;;;4987545;28;20038;-70
2024/02/19 00:23:28;;;;;;;9.73;4.75;;;10.30;99.90;;;;;;5002556;28;20436;-71
2024/02/19 00:25:54;;;;;;;12.63;5.82;;;10.30;99.90;;;;;;5026977;28;20124;-69
2024/02/19 00:28:19;;;;;;;12.23;5.57;;;10.30;99.90;;;;;;5021294;28;20041;-71
2024/02/19 00:30:45;;;;;;;7.60;4.93;;;10.30;99.90;;;;;;4987670;28;20469;-72
2024/02/19 00:33:10;;;;;;;17.07;5.97;;;10.30;99.90;;;;;;4987334;28;20040;-70
2024/02/19 00:35:36;;;;;;;6.87;5.17;;;10.30;99.90;;;;;;5021056;28;20029;-69
2024/02/19 00:38:01;;;;;;;10.27;5.37;;;10.40;99.90;;;;;;5026457;28;20037;-69
2024/02/19 00:40:27;;;;;;;7.93;5.67;;;10.30;99.90;;;;;;5006052;28;20022;-71
2024/02/19 00:42:53;;;;;;;10.33;5.13;;;10.30;99.90;;;;;;5002027;28;20044;-69
2024/02/19 00:45:18;;;;;;;9.20;5.87;;;10.20;99.90;;;;;;5009425;28;20049;-71
2024/02/19 00:47:44;;;;;;;9.77;5.47;;;10.20;99.90;;;;;;4994196;28;20026;-71
2024/02/19 00:50:10;;;;;;;7.57;5.60;;;10.20;99.90;;;;;;4985844;28;20141;-70
2024/02/19 00:52:39;;;;;;;11.25;5.57;;;10.20;99.90;;;;;;4986931;28;20380;-69
2024/02/19 00:55:06;;;;;;;11.93;5.47;;;10.20;99.90;;;;;;5014299;28;20044;-70
2024/02/19 00:57:31;;;;;;;8.88;5.80;;;10.20;99.90;;;;;;5009929;28;20026;-69
2024/02/19 00:59:57;;;;;;;7.43;4.93;;;10.20;99.90;;;;;;4992428;28;20045;-69
2024/02/19 01:02:23;;;;;;;10.90;5.60;;;10.10;99.90;;;;;;4998330;28;20595;-68
2024/02/19 01:04:52;;;;;;;11.48;5.57;;;10.10;99.90;;;;;;5015394;28;20038;-68
2024/02/19 01:07:20;;;;;;;10.13;5.50;;;10.20;99.90;;;;;;5026236;28;20025;-69
2024/02/19 01:09:47;;;;;;;12.63;5.93;;;10.20;99.90;;;;;;5022625;28;20497;-71
2024/02/19 01:12:13;;;;;;;12.25;5.45;;;10.20;99.90;;;;;;5008845;28;20049;-71
2024/02/19 01:14:38;;;;;;;9.23;5.87;;;10.20;99.90;;;;;;4978810;28;20120;-69
2024/02/19 01:17:04;;;;;;;17.03;6.77;;;10.20;99.90;;;;;;5005777;28;20030;-70
2024/02/19 01:19:31;;;;;;;13.03;6.23;;;10.20;99.90;;;;;;5014223;28;20124;-69
2024/02/19 01:21:57;;;;;;;12.95;7.10;;;10.20;99.90;;;;;;5012171;28;20036;-72
2024/02/19 01:24:23;;;;;;;20.90;7.10;;;10.10;99.90;;;;;;4997867;28;20042;-70
2024/02/19 01:26:49;;;;;;;14.43;6.67;;;10.10;99.90;;;;;;4987387;28;20030;-71
2024/02/19 01:29:14;;;;;;;10.75;7.10;;;10.20;99.90;;;;;;5001835;28;20055;-70
2024/02/19 01:31:40;;;;;;;12.33;6.50;;;10.10;99.90;;;;;;5025702;28;20042;-70
2024/02/19 01:34:06;;;;;;;11.75;7.05;;;10.10;99.90;;;;;;5015472;28;20030;-72
2024/02/19 01:36:32;;;;;;;12.02;6.95;;;10.20;99.90;;;;;;4990047;28;20045;-72
2024/02/19 01:38:57;;;;;;;10.67;6.50;;;10.10;99.90;;;;;;4995777;28;20033;-69
2024/02/19 01:41:23;;;;;;;10.43;6.80;;;10.20;99.90;;;;;;4997996;28;20034;-71
2024/02/19 01:43:48;;;;;;;14.73;8.20;;;10.00;99.90;;;;;;5006758;28;20034;-72
2024/02/19 01:46:15;;;;;;;11.83;7.37;;;10.10;99.90;;;;;;5010113;28;20037;-73
2024/02/19 01:48:41;;;;;;;;;;;10.10;99.90;;;;;;5009945;28;20564;-73
2024/02/19 01:51:07;;;;;;;16.05;7.03;;;10.20;99.90;;;;;;5030727;28;19944;-72
2024/02/19 01:53:32;;;;;;;15.02;7.82;;;10.00;99.90;;;;;;5029466;28;20033;-69
2024/02/19 01:55:58;;;;;;;13.67;7.37;;;10.10;99.90;;;;;;4993908;28;20026;-69
2024/02/19 01:58:25;;;;;;;16.73;8.02;;;10.00;99.90;;;;;;5009408;28;20658;-69
2024/02/19 02:00:51;;;;;;;14.73;8.05;;;10.00;99.90;;;;;;5025892;28;20029;-68
2024/02/19 02:03:21;;;;;;;22.90;9.00;;;10.00;99.90;;;;;;5002316;28;20034;-68
2024/02/19 02:05:47;;;;;;;18.23;7.80;;;10.00;99.90;;;;;;4996502;28;20076;-70
2024/02/19 02:08:14;;;;;;;14.00;8.20;;;10.00;99.90;;;;;;5007631;28;20401;-68
2024/02/19 02:10:40;;;;;;;17.80;8.57;;;10.10;99.90;;;;;;5020202;28;20041;-70
2024/02/19 02:13:05;;;;;;;13.77;7.72;;;10.00;99.90;;;;;;4992846;28;20033;-71
2024/02/19 02:15:31;;;;;;;22.23;8.90;;;9.90;99.90;;;;;;4990617;28;20482;-71
2024/02/19 02:17:56;;;;;;;15.70;7.63;;;9.90;99.90;;;;;;4989409;28;20041;-69
2024/02/19 02:20:22;;;;;;;15.07;8.47;;;10.10;99.90;;;;;;5016179;28;20456;-69
2024/02/19 02:22:48;;;;;;;14.13;8.30;;;10.00;99.90;;;;;;5030168;28;20033;-70
2024/02/19 02:25:13;;;;;;;11.73;7.93;;;10.00;99.90;;;;;;5003934;28;20593;-71
2024/02/19 02:27:39;;;;;;;10.67;7.93;;;10.10;99.90;;;;;;4990159;28;20541;-68
2024/02/19 02:30:06;;;;;;;14.53;8.10;;;10.00;99.90;;;;;;5010514;28;20044;-69
2024/02/19 02:32:33;;;;;;;15.88;9.15;;;10.00;99.90;;;;;;5029298;28;20100;-70
2024/02/19 02:34:59;;;;;;;11.88;8.63;;;10.00;99.90;;;;;;5008897;28;20038;-70
2024/02/19 02:37:25;;;;;;;13.65;8.65;;;10.00;99.90;;;;;;4990325;28;20129;-70
2024/02/19 02:39:50;;;;;;;15.83;8.00;;;10.00;99.90;;;;;;5005472;28;20041;-69
2024/02/19 02:42:17;;;;;;;13.77;8.47;;;10.00;99.90;;;;;;5028946;28;20582;-69
2024/02/19 02:44:43;;;;;;;21.88;7.95;;;10.00;99.90;;;;;;5015464;28;20501;-69
2024/02/19 02:47:08;;;;;;;13.10;8.23;;;9.60;99.90;;;;;;4989499;28;20124;-71
2024/02/19 02:49:34;;;;;;;14.57;8.37;;;10.00;99.90;;;;;;4989899;28;20823;-71
2024/02/19 02:51:59;;;;;;;14.63;8.13;;;9.80;99.90;;;;;;4989711;28;20065;-71
2024/02/19 02:54:25;;;;;;;14.97;8.90;;;9.90;99.90;;;;;;4990035;28;20093;-68
2024/02/19 02:56:50;;;;;;;18.67;8.70;;;10.00;99.90;;;;;;5000489;28;20041;-70
2024/02/19 02:59:16;;;;;;;14.87;8.33;;;10.00;99.90;;;;;;5006746;28;20045;-68
2024/02/19 03:01:42;;;;;;;12.07;7.50;;;9.90;99.90;;;;;;4996270;28;20029;-69
2024/02/19 03:04:08;;;;;;;14.77;8.03;;;10.00;99.90;;;;;;5008610;28;20425;-68
2024/02/19 03:06:33;;;;;;;12.40;7.50;;;9.90;99.90;;;;;;5009017;28;20053;-69
2024/02/19 03:08:59;;;;;;;14.70;7.97;;;10.00;99.90;;;;;;5008778;28;20348;-68
2024/02/19 03:11:24;;;;;;;9.87;7.10;;;10.00;99.90;;;;;;4990004;28;20042;-68
2024/02/19 03:13:50;;;;;;;13.77;7.57;;;10.00;99.90;;;;;;4989432;28;20514;-71
2024/02/19 03:16:17;;;;;;;11.73;7.37;;;9.90;99.90;;;;;;4988774;28;20037;-70
2024/02/19 03:18:43;;;;;;;11.57;7.47;;;9.80;99.90;;;;;;4992009;28;20042;-68
2024/02/19 03:21:11;;;;;;;14.98;7.85;;;9.80;99.90;;;;;;4994637;28;20545;-69
2024/02/19 03:23:36;;;;;;;12.48;8.15;;;9.90;99.90;;;;;;4988839;28;20038;-71
2024/02/19 03:26:04;;;;;;;14.60;8.73;;;9.90;99.90;;;;;;5001184;28;20485;-68
2024/02/19 03:28:30;;;;;;;13.52;8.10;;;9.90;99.90;;;;;;5007776;28;20022;-68
2024/02/19 03:30:56;;;;;;;13.67;8.93;;;9.90;99.90;;;;;;4994301;28;20101;-70
2024/02/19 03:33:22;;;;;;;16.52;9.95;;;9.90;99.90;;;;;;4988167;28;20651;-70
2024/02/19 03:35:48;;;;;;;16.50;8.85;;;9.80;99.90;;;;;;4970831;28;20062;-71
2024/02/19 03:38:13;;;;;;;20.47;9.90;;;9.70;99.90;;;;;;4988147;28;20069;-69
2024/02/19 03:40:39;;;;;;;22.50;9.53;;;9.80;99.90;;;;;;4984956;28;20423;-68
2024/02/19 03:43:05;;;;;;;;;;;9.80;99.90;;;;;;4988677;28;20050;-71
2024/02/19 03:45:32;;;;;;;21.63;9.50;;;9.90;99.90;;;;;;4978566;28;19988;-69
2024/02/19 03:47:58;;;;;;;14.88;8.73;;;9.90;99.90;;;;;;4968869;28;20022;-71
2024/02/19 03:50:24;;;;;;;12.57;8.83;;;9.90;99.90;;;;;;4971279;28;20049;-71
2024/02/19 03:52:50;;;;;;;18.07;9.13;;;9.90;99.90;;;;;;4968581;28;20034;-70
2024/02/19 03:55:16;;;;;;;16.48;9.10;;;10.00;99.90;;;;;;4968982;28;20023;-71
2024/02/19 03:57:41;;;;;;;19.23;10.07;;;9.90;99.90;;;;;;4985216;28;20471;-69
2024/02/19 04:00:09;;;;;;;17.93;10.83;;;9.90;99.90;;;;;;4983361;28;20117;-71
2024/02/19 04:02:36;;;;;;;17.08;10.18;;;9.90;99.90;;;;;;4982235;28;20085;-72
2024/02/19 04:05:01;;;;;;;;;;;9.90;99.90;;;;;;4988005;28;20438;-70
2024/02/19 04:07:27;;;;;;;15.63;9.38;;;10.00;99.90;;;;;;4987877;28;19948;-71
2024/02/19 04:09:52;;;;;;;21.20;10.13;;;10.00;99.90;;;;;;4985760;28;20514;-71
2024/02/19 04:12:18;;;;;;;20.17;9.67;;;9.90;99.90;;;;;;4968430;28;20023;-72
2024/02/19 04:14:43;;;;;;;18.97;10.53;;;9.80;99.90;;;;;;4961391;28;20383;-70
2024/02/19 04:17:09;;;;;;;15.27;9.63;;;9.90;99.90;;;;;;4971059;28;20027;-69
2024/02/19 04:19:35;;;;;;;19.40;9.70;;;10.00;99.90;;;;;;4973813;28;20034;-68
2024/02/19 04:22:00;;;;;;;17.20;9.67;;;9.80;99.90;;;;;;4975213;28;20061;-69
2024/02/19 04:24:26;;;;;;;18.10;10.23;;;9.90;99.90;;;;;;4973805;28;20041;-70
2024/02/19 04:26:52;;;;;;;19.20;9.88;;;9.90;99.90;;;;;;4975144;28;20045;-70
2024/02/19 04:29:17;;;;;;;15.07;9.53;;;9.90;99.90;;;;;;4973620;28;20509;-70
2024/02/19 04:31:43;;;;;;;19.93;10.60;;;9.90;99.90;;;;;;4979232;28;20029;-71
2024/02/19 04:34:09;;;;;;;22.77;11.02;;;9.80;99.90;;;;;;4976067;28;20113;-69
2024/02/19 04:36:34;;;;;;;18.73;10.87;;;9.90;99.90;;;;;;4972429;28;20027;-70
2024/02/19 04:39:00;;;;;;;17.77;10.70;;;9.80;99.90;;;;;;4972434;28;20105;-71
2024/02/19 04:41:26;;;;;;;24.53;11.53;;;9.80;99.90;;;;;;4994962;28;20088;-71
2024/02/19 04:43:52;;;;;;;18.43;10.70;;;9.90;99.90;;;;;;4995813;28;20486;-69
2024/02/19 04:46:18;;;;;;;17.85;11.00;;;9.90;99.90;;;;;;4991465;28;20034;-68
2024/02/19 04:48:44;;;;;;;22.45;11.02;;;9.90;99.90;;;;;;5004632;28;20092;-69
2024/02/19 04:51:10;;;;;;;17.80;10.32;;;9.90;99.90;;;;;;4993810;28;20464;-69
2024/02/19 04:53:35;;;;;;;16.80;9.87;;;9.80;99.90;;;;;;5000948;28;20030;-70
2024/02/19 04:56:01;;;;;;;18.67;10.87;;;9.80;99.90;;;;;;5002157;28;20026;-71
2024/02/19 04:58:27;;;;;;;18.10;11.57;;;9.80;99.90;;;;;;5000511;28;20044;-72
2024/02/19 05:00:52;;;;;;;16.90;10.80;;;9.90;99.90;;;;;;4996613;28;20038;-71
2024/02/19 05:03:18;;;;;;;18.93;11.30;;;9.90;99.90;;;;;;4998952;28;20033;-69
2024/02/19 05:05:44;;;;;;;16.23;11.07;;;9.80;99.90;;;;;;4998196;28;20059;-69
2024/02/19 05:08:09;;;;;;;17.87;10.57;;;9.90;99.90;;;;;;4995565;28;20092;-69
2024/02/19 05:10:35;;;;;;;18.97;10.40;;;9.90;99.90;;;;;;5005433;28;20288;-69
2024/02/19 05:13:01;;;;;;;16.02;10.57;;;9.90;99.90;;;;;;5008413;28;20443;-69
2024/02/19 05:15:26;;;;;;;24.47;11.93;;;9.80;99.90;;;;;;4999320;28;20049;-68
2024/02/19 05:17:52;;;;;;;19.13;11.07;;;9.80;99.90;;;;;;5001851;28;20062;-69
2024/02/19 05:20:18;;;;;;;16.00;9.87;;;9.80;99.90;;;;;;5007920;28;20044;-70
2024/02/19 05:22:46;;;;;;;17.03;9.53;;;9.80;99.90;;;;;;4999120;28;20049;-69
2024/02/19 05:25:12;;;;;;;17.67;10.35;;;9.80;99.90;;;;;;4997612;28;20125;-69
2024/02/19 05:27:37;;;;;;;22.07;11.03;;;9.90;99.90;;;;;;5008219;28;20202;-69
2024/02/19 05:30:03;;;;;;;28.70;10.37;;;9.90;99.90;;;;;;5006602;28;20037;-70
2024/02/19 05:32:29;;;;;;;19.63;11.43;;;9.80;99.90;;;;;;4997615;28;20384;-69
2024/02/19 05:34:55;;;;;;;19.60;11.87;;;9.80;99.90;;;;;;4998102;28;20030;-68
2024/02/19 05:37:20;;;;;;;20.47;12.33;;;9.80;99.90;;;;;;5007059;28;20517;-71
2024/02/19 05:39:46;;;;;;;36.73;15.67;;;9.80;99.90;;;;;;5014824;28;20034;-70
2024/02/19 05:42:12;;;;;;;32.60;14.33;;;9.90;99.90;;;;;;5001777;28;20034;-69
2024/02/19 05:44:37;;;;;;;26.13;12.10;;;9.90;99.90;;;;;;5001287;28;20030;-71
2024/02/19 05:47:03;;;;;;;17.33;11.87;;;9.90;99.90;;;;;;5001727;28;20085;-71
2024/02/19 05:49:29;;;;;;;20.13;11.82;;;9.90;99.90;;;;;;5007356;28;20040;-70
2024/02/19 05:51:54;;;;;;;21.33;10.70;;;9.80;99.90;;;;;;4999437;28;20135;-71
2024/02/19 05:54:24;;;;;;;20.50;10.15;;;9.90;99.90;;;;;;5001665;28;20037;-69
2024/02/19 05:56:50;;;;;;;25.75;11.68;;;9.80;99.90;;;;;;4997545;28;20530;-68
2024/02/19 05:59:15;;;;;;;21.75;10.43;;;9.90;99.90;;;;;;5007574;28;20105;-69
2024/02/19 06:01:41;;;;;;;19.50;10.10;;;9.90;99.90;;;;;;4998401;28;20038;-69
2024/02/19 06:04:08;;;;;;;18.13;10.07;;;9.80;99.90;;;;;;5005495;28;20176;-69
2024/02/19 06:06:33;;;;;;;;;;;9.90;99.90;;;;;;5001550;28;20041;-70
2024/02/19 06:09:00;;;;;;;23.75;11.48;;;9.90;99.90;;;;;;4997102;28;19909;-70
2024/02/19 06:11:27;;;;;;;;;;;9.80;99.90;;;;;;4990108;28;20038;-71
2024/02/19 06:13:53;;;;;;;22.98;11.43;;;9.90;99.90;;;;;;4999906;28;20059;-71
2024/02/19 06:16:19;;;;;;;22.38;12.25;;;9.80;99.90;;;;;;5002541;28;20511;-71
2024/02/19 06:18:44;;;;;;;21.40;12.27;;;9.80;99.90;;;;;;5007472;28;20045;-70
2024/02/19 06:21:10;;;;;;;22.33;11.63;;;9.80;99.90;;;;;;5000306;28;20406;-71
2024/02/19 06:23:35;;;;;;;28.10;11.93;;;9.80;99.90;;;;;;4996860;28;20038;-69
2024/02/19 06:26:02;;;;;;;23.30;11.63;;;9.80;99.90;;;;;;4996184;28;20034;-70
2024/02/19 06:28:28;;;;;;;21.35;12.30;;;9.80;99.90;;;;;;4999187;28;20041;-69
2024/02/19 06:30:53;;;;;;;26.75;12.57;;;9.80;99.90;;;;;;5000344;28;20866;-70
2024/02/19 06:33:19;;;;;;;21.93;12.27;;;9.90;99.90;;;;;;4998439;28;20133;-69
2024/02/19 06:35:45;;;;;;;18.97;12.77;;;9.80;99.90;;;;;;5001013;28;20034;-70
2024/02/19 06:38:11;;;;;;;24.57;12.23;;;9.90;99.90;;;;;;4992787;28;20371;-70
2024/02/19 06:40:36;;;;;;;20.15;12.07;;;9.80;99.90;;;;;;5004072;28;20076;-70
2024/02/19 06:43:03;;;;;;;23.65;12.30;;;9.80;99.90;;;;;;5001025;28;20037;-74
2024/02/19 06:45:28;;;;;;;19.67;12.13;;;9.80;99.90;;;;;;4999757;28;20038;-72
2024/02/19 06:47:54;;;;;;;21.70;11.73;;;9.80;99.90;;;;;;4998229;28;20894;-69
2024/02/19 06:50:19;;;;;;;18.57;10.70;;;9.90;99.90;;;;;;4999071;28;20034;-73
2024/02/19 06:52:45;;;;;;;19.50;11.18;;;9.90;99.90;;;;;;4996144;28;20041;-72
2024/02/19 06:55:15;;;;;;;22.13;11.35;;;9.90;99.90;;;;;;5000595;28;20059;-71
2024/02/19 06:57:40;;;;;;;18.08;10.88;;;9.80;99.90;;;;;;4994392;28;20433;-72
2024/02/19 07:00:08;;;;;;;17.70;10.50;;;9.90;99.90;;;;;;4992861;28;20022;-71
2024/02/19 07:02:33;;;;;;;21.38;10.65;;;9.90;99.90;;;;;;5000240;28;20022;-69
2024/02/19 07:04:59;;;;;;;18.17;11.00;;;10.10;99.90;;;;;;4985473;28;20042;-68
2024/02/19 07:07:25;;;;;;;17.90;11.33;;;9.90;99.90;;;;;;4996149;28;20501;-69
2024/02/19 07:09:51;;;;;;;19.73;10.68;;;10.00;99.90;;;;;;4998621;28;20122;-69
2024/02/19 07:12:17;;;;;;;17.17;11.93;;;10.00;99.90;;;;;;5004032;28;20026;-69
2024/02/19 07:14:43;;;;;;;19.25;11.02;;;10.00;99.90;;;;;;4999276;28;20037;-70
2024/02/19 07:17:10;;;;;;;19.10;11.57;;;10.00;99.90;;;;;;4980556;28;20034;-70
2024/02/19 07:19:35;;;;;;;17.65;11.02;;;10.00;99.90;;;;;;5002012;28;20026;-70
2024/02/19 07:22:01;;;;;;;22.43;12.03;;;10.10;99.90;;;;;;4996371;28;20062;-73
2024/02/19 07:24:28;;;;;;;14.77;9.60;;;9.90;99.90;;;;;;5001308;28;20030;-70
2024/02/19 07:26:54;;;;;;;;;;;9.90;99.90;;;;;;4997625;28;20497;-70
2024/02/19 07:29:21;;;;;;;20.15;11.02;;;10.00;99.90;;;;;;4996335;28;19913;-70
2024/02/19 07:31:47;;;;;;;23.25;10.68;;;10.00;99.90;;;;;;4999771;28;20029;-70
2024/02/19 07:34:13;;;;;;;17.77;10.67;;;9.90;99.90;;;;;;4995101;28;20038;-71
2024/02/19 07:36:38;;;;;;;15.23;9.10;;;9.90;99.90;;;;;;4998806;28;20061;-71
2024/02/19 07:39:04;;;;;;;17.23;10.03;;;10.00;99.90;;;;;;4998939;28;20033;-71
2024/02/19 07:41:29;;;;;;;21.13;10.70;;;10.00;99.90;;;;;;5002377;28;20279;-71
2024/02/19 07:43:55;;;;;;;19.30;11.00;;;10.00;99.90;;;;;;4998683;28;20478;-70
2024/02/19 07:46:22;;;;;;;20.53;8.77;;;10.10;99.90;;;;;;4995415;28;20054;-69
2024/02/19 07:48:48;;;;;;;18.15;10.30;;;10.10;99.90;;;;;;4999083;28;20498;-70
2024/02/19 07:51:14;;;;;;;20.08;9.20;;;10.20;99.90;;;;;;4997671;28;20057;-69
2024/02/19 07:53:41;;;;;;;;;;;10.30;99.90;;;;;;4999649;28;20038;-69
2024/02/19 07:56:07;;;;;;;13.25;8.60;;;10.20;99.90;;;;;;4997756;28;20301;-71
2024/02/19 07:58:33;;;;;;;11.90;8.18;;;10.30;99.90;;;;;;5000185;28;20022;-69
2024/02/19 08:00:59;;;;;;;21.08;10.18;;;10.30;99.90;;;;;;5001998;28;20413;-70
2024/02/19 08:03:25;;;;;;;18.92;9.80;;;10.40;99.90;;;;;;4995802;28;20026;-70
2024/02/19 08:05:51;;;;;;;18.33;8.37;;;10.60;99.90;;;;;;5013625;28;20061;-71
2024/02/19 08:08:17;;;;;;;18.93;8.13;;;10.70;99.90;;;;;;4998119;28;20113;-71
2024/02/19 08:10:43;;;;;;;;;;;10.60;99.90;;;;;;4995966;28;20399;-70
2024/02/19 08:13:09;;;;;;;10.32;6.60;;;10.70;99.90;;;;;;4999290;28;20387;-71
2024/02/19 08:15:37;;;;;;;10.10;5.72;;;10.80;99.90;;;;;;4996373;28;20045;-71
2024/02/19 08:18:03;;;;;;;20.02;7.03;;;11.10;99.90;;;;;;5005801;28;20676;-72
2024/02/19 08:20:29;;;;;;;10.38;6.10;;;11.50;99.90;;;;;;4999397;28;20469;-72
2024/02/19 08:22:55;;;;;;;13.73;5.82;;;11.90;99.90;;;;;;4993075;28;20038;-73
2024/02/19 08:25:22;;;;;;;6.68;4.13;;;11.50;99.90;;;;;;4991960;28;20482;-73
2024/02/19 08:27:47;;;;;;;;;;;11.40;99.90;;;;;;4999621;28;20046;-71
2024/02/19 08:30:13;;;;;;;6.43;4.18;;;11.10;99.90;;;;;;4997303;28;19913;-71
2024/02/19 08:32:40;;;;;;;7.07;4.17;;;11.10;99.90;;;;;;5004201;28;20034;-71
2024/02/19 08:35:06;;;;;;;9.23;4.10;;;11.30;99.90;;;;;;4989246;28;20277;-70
2024/02/19 08:37:31;;;;;;;7.40;4.18;;;11.10;99.90;;;;;;4997365;28;20422;-71
2024/02/19 08:39:57;;;;;;;14.37;4.93;;;11.00;99.90;;;;;;5001391;28;20030;-71
2024/02/19 08:42:23;;;;;;;9.20;5.37;;;11.10;99.90;;;;;;4999166;28;20554;-71
2024/02/19 08:44:48;;;;;;;10.73;5.83;;;11.10;99.90;;;;;;4999353;28;20383;-71
2024/02/19 08:47:15;;;;;;;11.37;5.43;;;11.20;99.90;;;;;;4995960;28;20030;-71
2024/02/19 08:49:40;;;;;;;8.88;4.97;;;11.30;99.90;;;;;;4995872;28;20546;-71
2024/02/19 08:52:06;;;;;;;7.30;4.70;;;11.90;99.90;;;;;;4977951;28;20037;-72
2024/02/19 08:54:32;;;;;;;6.97;4.50;;;12.30;99.90;;;;;;4994194;28;20129;-72
2024/02/19 08:56:58;;;;;;;6.18;4.43;;;12.60;99.90;;;;;;5003185;28;20033;-71
2024/02/19 08:59:23;;;;;;;5.73;3.03;;;12.90;99.90;;;;;;4994645;28;20037;-72
2024/02/19 09:01:49;;;;;;;7.53;2.77;;;14.40;99.90;;;;;;5000754;28;20529;-72
2024/02/19 09:04:15;;;;;;;5.17;2.53;;;13.90;99.90;;;;;;4996145;28;20037;-69
2024/02/19 09:06:40;;;;;;;5.30;2.60;;;16.50;99.90;;;;;;4997580;28;20835;-71
2024/02/19 09:09:07;;;;;;;2.97;2.10;;;15.00;99.90;;;;;;4998028;28;20108;-70
2024/02/19 09:11:32;;;;;;;2.25;2.00;;;14.20;99.90;;;;;;4988439;28;20030;-70
2024/02/19 09:13:58;;;;;;;5.20;2.47;;;13.80;99.90;;;;;;4998588;28;20052;-72
2024/02/19 09:16:24;;;;;;;5.33;2.23;;;13.30;99.90;;;;;;5002645;28;20386;-70
2024/02/19 09:18:49;;;;;;;7.93;2.90;;;12.80;99.90;;;;;;4996219;28;20042;-69
2024/02/19 09:21:15;;;;;;;6.30;3.60;;;12.90;99.90;;;;;;4998800;28;20578;-69
2024/02/19 09:23:40;;;;;;;7.00;3.30;;;13.40;99.90;;;;;;4995349;28;20123;-69
2024/02/19 09:26:12;;;;;;;8.87;3.30;;;13.50;99.90;;;;;;4998595;28;20093;-71
2024/02/19 09:28:38;;;;;;;6.40;3.88;;;13.20;99.90;;;;;;4998738;28;20030;-69
2024/02/19 09:31:04;;;;;;;18.43;7.47;;;13.20;99.90;;;;;;4996301;28;20061;-69
2024/02/19 09:33:29;;;;;;;10.68;5.72;;;15.50;99.90;;;;;;4997950;28;20030;-68
2024/02/19 09:35:55;;;;;;;4.43;2.53;;;15.40;99.90;;;;;;4997526;28;20033;-69
2024/02/19 09:38:21;;;;;;;4.87;3.03;;;15.20;99.90;;;;;;4992497;28;20062;-70
2024/02/19 09:40:49;;;;;;;5.40;2.40;;;18.70;99.90;;;;;;4985055;28;20034;-69
2024/02/19 09:43:20;;;;;;;3.47;2.10;;;16.80;99.90;;;;;;4993886;28;20046;-69
2024/02/19 09:45:48;;;;;;;4.50;2.40;;;15.20;99.90;;;;;;4995830;28;20414;-69
2024/02/19 09:48:19;;;;;;;5.03;2.80;;;14.20;99.90;;;;;;4992115;28;20420;-70
2024/02/19 09:50:47;;;;;;;6.10;3.80;;;13.70;99.90;;;;;;4999436;28;20038;-71
2024/02/19 09:53:18;;;;;;;6.07;3.05;;;13.30;99.90;;;;;;5010080;28;20105;-71
2024/02/19 09:55:44;;;;;;;5.85;2.85;;;13.00;99.90;;;;;;4997123;28;20034;-69
2024/02/19 09:58:10;;;;;;;3.27;2.20;;;13.00;99.90;;;;;;4998173;28;20022;-71
2024/02/19 10:00:36;;;;;;;5.40;2.75;;;13.00;99.90;;;;;;5000356;28;20293;-71
2024/02/19 10:03:02;;;;;;;5.65;2.50;;;12.90;99.90;;;;;;5010842;28;20029;-71
2024/02/19 10:05:28;;;;;;;5.22;2.78;;;12.70;99.90;;;;;;5002561;28;20053;-71
2024/02/19 10:07:58;;;;;;;3.58;2.33;;;12.70;99.90;;;;;;4998546;28;20091;-71
2024/02/19 10:10:25;;;;;;;3.42;1.98;;;12.70;99.90;;;;;;4998527;28;20100;-70
2024/02/19 10:12:51;;;;;;;5.63;2.72;;;12.50;99.90;;;;;;4999536;28;20038;-69
2024/02/19 10:15:16;;;;;;;3.37;2.30;;;12.30;99.90;;;;;;4997926;28;20474;-71
2024/02/19 10:17:42;;;;;;;7.30;2.50;;;12.30;99.90;;;;;;4998286;28;20675;-71
2024/02/19 10:20:10;;;;;;;6.83;2.67;;;12.20;99.90;;;;;;5004522;28;20486;-69
2024/02/19 10:22:35;;;;;;;4.25;2.65;;;12.20;99.90;;;;;;5000324;28;20338;-69
2024/02/19 10:25:01;;;;;;;5.10;2.70;;;12.20;99.90;;;;;;5004600;28;20490;-70
2024/02/19 10:27:37;;;;;;;4.10;2.20;;;12.30;99.90;;;;;;4997911;28;20042;-71
2024/02/19 10:30:07;;;;;;;5.75;2.20;;;12.20;99.90;;;;;;4997963;28;20060;-70
2024/02/19 10:32:32;;;;;;;3.28;2.15;;;12.30;99.90;;;;;;4996823;28;20046;-70
2024/02/19 10:34:58;;;;;;;2.95;1.90;;;12.30;99.90;;;;;;5007537;28;20034;-70
2024/02/19 10:37:24;;;;;;;5.00;2.60;;;12.50;99.90;;;;;;4996713;28;20132;-70
2024/02/19 10:39:49;;;;;;;4.40;2.77;;;12.50;99.90;;;;;;4998447;28;20038;-70
2024/02/19 10:42:15;;;;;;;3.03;1.88;;;12.50;99.90;;;;;;4999688;28;20057;-71
2024/02/19 10:44:42;;;;;;;3.28;1.67;;;12.60;99.90;;;;;;5007751;28;20042;-68
2024/02/19 10:47:09;;;;;;;2.17;1.67;;;12.60;99.90;;;;;;5001826;28;20018;-72
2024/02/19 10:49:34;;;;;;;5.63;2.08;;;12.50;99.90;;;;;;5002738;28;20087;-73
2024/02/19 10:52:00;;;;;;;2.83;1.73;;;12.60;99.90;;;;;;5002167;28;20034;-73
2024/02/19 10:54:26;;;;;;;2.58;1.70;;;12.60;99.90;;;;;;5000891;28;20041;-74
2024/02/19 10:56:52;;;;;;;12.55;3.05;;;12.50;99.90;;;;;;4995354;28;20038;-78
2024/02/19 10:59:18;;;;;;;7.95;1.90;;;12.40;99.90;;;;;;4999978;28;20031;-73
2024/02/19 11:01:46;;;;;;;5.60;1.80;;;12.30;99.90;;;;;;4997850;28;20042;-71
2024/02/19 11:04:23;;;;;;;4.32;2.15;;;12.50;99.90;;;;;;4998173;28;20030;-73
2024/02/19 11:06:56;;;;;;;6.07;2.40;;;12.80;99.90;;;;;;5000478;28;20041;-70
2024/02/19 11:09:23;;;;;;;8.52;2.60;;;12.60;99.90;;;;;;4996103;28;20030;-75
2024/02/19 11:11:53;;;;;;;5.40;2.42;;;12.80;99.90;;;;;;5000107;28;20038;-77
2024/02/19 11:14:23;;;;;;;4.28;2.20;;;13.10;99.90;;;;;;5002577;28;20021;-75
2024/02/19 11:16:50;;;;;;;5.32;2.17;;;13.20;99.90;;;;;;5002099;28;20505;-76
2024/02/19 11:19:18;;;;;;;3.08;2.03;;;13.30;99.90;;;;;;4993028;28;20026;-74
2024/02/19 11:21:44;;;;;;;6.25;2.13;;;13.10;99.90;;;;;;4998809;28;20030;-77
2024/02/19 11:24:10;;;;;;;4.35;1.80;;;13.00;99.90;;;;;;5002855;28;20048;-81
2024/02/19 11:26:41;;;;;;;3.75;1.88;;;12.70;99.90;;;;;;5000601;28;20054;-81
2024/02/19 11:29:13;;;;;;;2.72;1.77;;;12.70;99.90;;;;;;4997430;28;20407;-76
2024/02/19 11:31:39;;;;;;;3.75;1.60;;;12.60;99.90;;;;;;4998679;28;20038;-70
2024/02/19 11:34:09;;;;;;;4.82;1.52;;;12.70;99.90;;;;;;4999221;28;20263;-69
2024/02/19 11:36:35;;;;;;;3.42;1.88;;;12.70;99.90;;;;;;4999228;28;20035;-72
2024/02/19 11:39:01;;;;;;;3.90;2.10;;;12.80;99.90;;;;;;4998857;28;20038;-69
2024/02/19 11:41:27;;;;;;;5.05;2.03;;;13.10;99.90;;;;;;4995848;28;20034;-68
2024/02/19 11:43:55;;;;;;;4.05;1.98;;;13.10;99.90;;;;;;4997355;28;20524;-71
2024/02/19 11:46:22;;;;;;;6.35;2.72;;;13.10;99.90;;;;;;5000734;28;20077;-69
2024/02/19 11:48:49;;;;;;;4.93;2.80;;;13.20;99.90;;;;;;5000749;28;20037;-70
2024/02/19 11:51:14;;;;;;;9.90;3.17;;;13.30;99.90;;;;;;4996569;28;20035;-69
2024/02/19 11:53:40;;;;;;;4.97;2.10;;;13.50;99.90;;;;;;4999637;28;20466;-73
2024/02/19 11:56:06;;;;;;;6.30;2.47;;;13.60;99.90;;;;;;5010049;28;20097;-78
2024/02/19 11:58:32;;;;;;;3.27;1.80;;;13.70;99.90;;;;;;4997098;28;20042;-78
2024/02/19 12:00:59;;;;;;;5.18;2.20;;;13.70;99.90;;;;;;4998243;28;20557;-84
2024/02/19 12:03:27;;;;;;;2.08;1.70;;;13.70;99.90;;;;;;4997957;28;20042;-83
2024/02/19 12:05:57;;;;;;;2.92;1.88;;;13.70;99.90;;;;;;4993411;28;20054;-77
2024/02/19 12:08:23;;;;;;;8.45;2.30;;;13.70;99.90;;;;;;5003033;28;20018;-78
2024/02/19 12:10:48;;;;;;;3.53;2.03;;;13.70;99.90;;;;;;4999031;28;20117;-74
2024/02/19 12:13:16;;;;;;;3.30;1.77;;;13.40;99.90;;;;;;4998728;28;20029;-77
2024/02/19 12:15:51;;;;;;;5.28;1.80;;;13.50;99.90;;;;;;4997281;28;20104;-78
2024/02/19 12:18:18;;;;;;;2.58;1.45;;;13.60;99.90;;;;;;4997574;28;20061;-75
2024/02/19 12:20:44;;;;;;;3.35;1.85;;;13.70;99.90;;;;;;4997499;28;20042;-76
2024/02/19 12:23:10;;;;;;;2.17;1.65;;;13.70;99.90;;;;;;4997376;28;20100;-77
2024/02/19 12:25:35;;;;;;;8.40;1.93;;;13.70;99.90;;;;;;4999249;28;20418;-75
2024/02/19 12:28:02;;;;;;;2.60;1.40;;;13.80;99.90;;;;;;4985220;28;20030;-76
2024/02/19 12:30:28;;;;;;;3.85;1.60;;;13.70;99.90;;;;;;5003392;28;20057;-75
2024/02/19 12:32:54;;;;;;;2.60;1.40;;;13.60;99.90;;;;;;4999187;28;20466;-74
2024/02/19 12:35:19;;;;;;;4.40;1.05;;;13.80;99.90;;;;;;5000482;28;20066;-74
2024/02/19 12:37:45;;;;;;;2.23;1.03;;;13.80;99.90;;;;;;4999837;28;20458;-74